sensor_id;sensor_type;location;lat;lon;timestamp;P1;durP1;ratioP1;P2;durP2;ratioP2
35243;SDS011;37916;52.160;21.066;2022-07-29T00:00:05;6.85;;;3.53;;
35243;SDS011;37916;52.160;21.066;2022-07-29T00:10:07;7.10;;;4.32;;
35243;SDS011;37916;52.160;21.066;2022-07-29T00:20:08;6.63;;;3.75;;
35243;SDS011;37916;52.160;21.066;2022-07-29T00:30:09;9.30;;;4.03;;
35243;SDS011;37916;52.160;21.066;2022-07-29T00:40:10;9.98;;;4.32;;
35243;SDS011;37916;52.160;21.066;2022-07-29T00:50:11;15.43;;;3.83;;
35243;SDS011;37916;52.160;21.066;2022-07-29T01:00:19;6.05;;;3.53;;
35243;SDS011;37916;52.160;21.066;2022-07-29T01:10:23;7.57;;;3.42;;
35243;SDS011;37916;52.160;21.066;2022-07-29T01:30:37;6.25;;;3.03;;
35243;SDS011;37916;52.160;21.066;2022-07-29T01:41:22;7.07;;;3.13;;
35243;SDS011;37916;52.160;21.066;2022-07-29T01:51:12;7.43;;;3.22;;
35243;SDS011;37916;52.160;21.066;2022-07-29T02:01:18;5.22;;;2.30;;
35243;SDS011;37916;52.160;21.066;2022-07-29T02:11:21;9.00;;;3.70;;
35243;SDS011;37916;52.160;21.066;2022-07-29T02:21:23;4.38;;;2.60;;
35243;SDS011;37916;52.160;21.066;2022-07-29T02:31:28;6.07;;;2.85;;
35243;SDS011;37916;52.160;21.066;2022-07-29T02:41:37;6.57;;;2.40;;
35243;SDS011;37916;52.160;21.066;2022-07-29T02:52:06;5.78;;;2.58;;
35243;SDS011;37916;52.160;21.066;2022-07-29T03:02:12;5.10;;;2.30;;
35243;SDS011;37916;52.160;21.066;2022-07-29T03:12:14;4.38;;;2.08;;
35243;SDS011;37916;52.160;21.066;2022-07-29T03:22:15;3.50;;;1.83;;
35243;SDS011;37916;52.160;21.066;2022-07-29T03:32:16;5.50;;;2.30;;
35243;SDS011;37916;52.160;21.066;2022-07-29T03:42:17;5.53;;;1.95;;
35243;SDS011;37916;52.160;21.066;2022-07-29T03:52:21;4.70;;;2.43;;
35243;SDS011;37916;52.160;21.066;2022-07-29T04:02:21;5.78;;;2.90;;
35243;SDS011;37916;52.160;21.066;2022-07-29T04:12:23;4.57;;;2.45;;
35243;SDS011;37916;52.160;21.066;2022-07-29T04:22:23;2.88;;;1.52;;
35243;SDS011;37916;52.160;21.066;2022-07-29T04:32:24;4.93;;;1.90;;
35243;SDS011;37916;52.160;21.066;2022-07-29T04:42:25;3.50;;;1.80;;
35243;SDS011;37916;52.160;21.066;2022-07-29T04:52:26;2.73;;;1.30;;
35243;SDS011;37916;52.160;21.066;2022-07-29T05:02:26;8.25;;;1.70;;
35243;SDS011;37916;52.160;21.066;2022-07-29T05:12:27;3.93;;;1.53;;
35243;SDS011;37916;52.160;21.066;2022-07-29T05:22:28;4.15;;;1.05;;
35243;SDS011;37916;52.160;21.066;2022-07-29T05:32:28;3.80;;;1.45;;
35243;SDS011;37916;52.160;21.066;2022-07-29T05:42:29;2.55;;;1.00;;
35243;SDS011;37916;52.160;21.066;2022-07-29T05:52:30;1.85;;;0.88;;
35243;SDS011;37916;52.160;21.066;2022-07-29T06:02:30;2.83;;;0.70;;
35243;SDS011;37916;52.160;21.066;2022-07-29T06:12:31;0.93;;;0.50;;
35243;SDS011;37916;52.160;21.066;2022-07-29T06:22:31;1.60;;;0.60;;
35243;SDS011;37916;52.160;21.066;2022-07-29T06:32:32;4.60;;;0.98;;
35243;SDS011;37916;52.160;21.066;2022-07-29T06:42:33;3.27;;;0.60;;
35243;SDS011;37916;52.160;21.066;2022-07-29T06:52:34;2.17;;;0.57;;
35243;SDS011;37916;52.160;21.066;2022-07-29T07:02:34;3.65;;;0.63;;
35243;SDS011;37916;52.160;21.066;2022-07-29T07:12:35;2.37;;;0.60;;
35243;SDS011;37916;52.160;21.066;2022-07-29T07:22:36;3.33;;;0.73;;
35243;SDS011;37916;52.160;21.066;2022-07-29T07:32:36;3.88;;;0.77;;
35243;SDS011;37916;52.160;21.066;2022-07-29T07:42:38;1.17;;;0.50;;
35243;SDS011;37916;52.160;21.066;2022-07-29T07:52:45;1.83;;;0.52;;
35243;SDS011;37916;52.160;21.066;2022-07-29T08:02:50;3.22;;;0.65;;
35243;SDS011;37916;52.160;21.066;2022-07-29T08:12:51;1.65;;;0.60;;
35243;SDS011;37916;52.160;21.066;2022-07-29T08:22:51;3.53;;;0.57;;
35243;SDS011;37916;52.160;21.066;2022-07-29T08:32:53;3.03;;;0.85;;
35243;SDS011;37916;52.160;21.066;2022-07-29T08:42:54;3.23;;;0.63;;
35243;SDS011;37916;52.160;21.066;2022-07-29T09:02:56;3.97;;;0.70;;
35243;SDS011;37916;52.160;21.066;2022-07-29T09:12:58;2.10;;;0.55;;
35243;SDS011;37916;52.160;21.066;2022-07-29T09:23:06;4.63;;;0.73;;
35243;SDS011;37916;52.160;21.066;2022-07-29T09:33:08;0.98;;;0.60;;
35243;SDS011;37916;52.160;21.066;2022-07-29T09:43:09;4.80;;;0.98;;
35243;SDS011;37916;52.160;21.066;2022-07-29T09:53:11;1.52;;;0.60;;
35243;SDS011;37916;52.160;21.066;2022-07-29T10:03:12;1.20;;;0.50;;
35243;SDS011;37916;52.160;21.066;2022-07-29T10:13:16;2.47;;;0.68;;
35243;SDS011;37916;52.160;21.066;2022-07-29T10:23:16;2.67;;;0.60;;
35243;SDS011;37916;52.160;21.066;2022-07-29T10:43:49;2.27;;;0.60;;
35243;SDS011;37916;52.160;21.066;2022-07-29T10:53:52;2.70;;;0.63;;
35243;SDS011;37916;52.160;21.066;2022-07-29T11:03:53;1.87;;;0.50;;
35243;SDS011;37916;52.160;21.066;2022-07-29T11:13:56;1.83;;;0.60;;
35243;SDS011;37916;52.160;21.066;2022-07-29T11:24:11;4.18;;;0.57;;
35243;SDS011;37916;52.160;21.066;2022-07-29T11:34:29;2.03;;;0.50;;
35243;SDS011;37916;52.160;21.066;2022-07-29T11:54:58;3.63;;;0.47;;
35243;SDS011;37916;52.160;21.066;2022-07-29T12:05:03;3.58;;;0.50;;
35243;SDS011;37916;52.160;21.066;2022-07-29T12:15:14;2.95;;;0.57;;
35243;SDS011;37916;52.160;21.066;2022-07-29T12:25:17;1.83;;;0.38;;
35243;SDS011;37916;52.160;21.066;2022-07-29T12:35:18;1.17;;;0.50;;
35243;SDS011;37916;52.160;21.066;2022-07-29T12:45:27;1.33;;;0.40;;
35243;SDS011;37916;52.160;21.066;2022-07-29T12:55:39;2.22;;;0.47;;
35243;SDS011;37916;52.160;21.066;2022-07-29T13:05:44;0.93;;;0.57;;
35243;SDS011;37916;52.160;21.066;2022-07-29T13:15:45;3.22;;;0.70;;
35243;SDS011;37916;52.160;21.066;2022-07-29T13:25:49;2.05;;;0.60;;
35243;SDS011;37916;52.160;21.066;2022-07-29T13:35:49;1.65;;;0.52;;
35243;SDS011;37916;52.160;21.066;2022-07-29T13:45:50;1.53;;;0.57;;
35243;SDS011;37916;52.160;21.066;2022-07-29T13:55:51;1.38;;;0.57;;
35243;SDS011;37916;52.160;21.066;2022-07-29T14:05:53;5.72;;;0.68;;
35243;SDS011;37916;52.160;21.066;2022-07-29T14:15:53;1.15;;;0.50;;
35243;SDS011;37916;52.160;21.066;2022-07-29T14:25:54;2.87;;;0.40;;
35243;SDS011;37916;52.160;21.066;2022-07-29T14:35:55;2.55;;;0.52;;
35243;SDS011;37916;52.160;21.066;2022-07-29T14:45:55;1.05;;;0.40;;
35243;SDS011;37916;52.160;21.066;2022-07-29T14:55:56;1.60;;;0.68;;
35243;SDS011;37916;52.160;21.066;2022-07-29T15:05:56;2.88;;;0.55;;
35243;SDS011;37916;52.160;21.066;2022-07-29T15:15:57;3.70;;;0.80;;
35243;SDS011;37916;52.160;21.066;2022-07-29T15:25:58;5.90;;;0.70;;
35243;SDS011;37916;52.160;21.066;2022-07-29T15:35:58;1.55;;;0.55;;
35243;SDS011;37916;52.160;21.066;2022-07-29T15:45:59;1.55;;;0.60;;
35243;SDS011;37916;52.160;21.066;2022-07-29T15:56:18;2.60;;;0.80;;
35243;SDS011;37916;52.160;21.066;2022-07-29T16:06:19;3.03;;;0.50;;
35243;SDS011;37916;52.160;21.066;2022-07-29T16:16:19;4.97;;;1.20;;
35243;SDS011;37916;52.160;21.066;2022-07-29T16:26:20;2.03;;;0.50;;
35243;SDS011;37916;52.160;21.066;2022-07-29T16:36:21;1.67;;;0.50;;
35243;SDS011;37916;52.160;21.066;2022-07-29T16:46:22;1.55;;;0.50;;
35243;SDS011;37916;52.160;21.066;2022-07-29T16:56:26;1.50;;;0.60;;
35243;SDS011;37916;52.160;21.066;2022-07-29T17:06:30;4.13;;;0.73;;
35243;SDS011;37916;52.160;21.066;2022-07-29T17:16:33;1.75;;;0.45;;
35243;SDS011;37916;52.160;21.066;2022-07-29T17:26:34;3.40;;;0.55;;
35243;SDS011;37916;52.160;21.066;2022-07-29T17:36:35;3.65;;;0.82;;
35243;SDS011;37916;52.160;21.066;2022-07-29T17:46:36;4.65;;;1.30;;
35243;SDS011;37916;52.160;21.066;2022-07-29T18:07:16;2.13;;;0.82;;
35243;SDS011;37916;52.160;21.066;2022-07-29T18:17:17;2.40;;;0.60;;
35243;SDS011;37916;52.160;21.066;2022-07-29T18:27:20;1.97;;;0.87;;
35243;SDS011;37916;52.160;21.066;2022-07-29T18:37:25;2.10;;;1.05;;
35243;SDS011;37916;52.160;21.066;2022-07-29T18:47:25;5.30;;;1.10;;
35243;SDS011;37916;52.160;21.066;2022-07-29T19:28:47;3.65;;;0.95;;
35243;SDS011;37916;52.160;21.066;2022-07-29T19:38:48;2.92;;;1.42;;
35243;SDS011;37916;52.160;21.066;2022-07-29T19:48:49;3.28;;;1.30;;
35243;SDS011;37916;52.160;21.066;2022-07-29T19:58:50;4.47;;;2.47;;
35243;SDS011;37916;52.160;21.066;2022-07-29T20:08:51;3.90;;;1.00;;
35243;SDS011;37916;52.160;21.066;2022-07-29T20:18:55;2.78;;;1.40;;
35243;SDS011;37916;52.160;21.066;2022-07-29T20:28:59;3.90;;;1.20;;
35243;SDS011;37916;52.160;21.066;2022-07-29T20:39:04;5.05;;;0.95;;
35243;SDS011;37916;52.160;21.066;2022-07-29T20:49:05;2.72;;;1.20;;
35243;SDS011;37916;52.160;21.066;2022-07-29T20:59:06;3.70;;;1.00;;
35243;SDS011;37916;52.160;21.066;2022-07-29T21:09:07;2.42;;;0.80;;
35243;SDS011;37916;52.160;21.066;2022-07-29T21:19:08;4.53;;;1.00;;
35243;SDS011;37916;52.160;21.066;2022-07-29T21:29:09;1.50;;;0.90;;
35243;SDS011;37916;52.160;21.066;2022-07-29T21:39:09;2.80;;;0.70;;
35243;SDS011;37916;52.160;21.066;2022-07-29T21:49:10;3.15;;;1.08;;
35243;SDS011;37916;52.160;21.066;2022-07-29T21:59:10;3.43;;;0.90;;
35243;SDS011;37916;52.160;21.066;2022-07-29T22:09:11;2.27;;;0.80;;
35243;SDS011;37916;52.160;21.066;2022-07-29T22:19:12;2.40;;;0.85;;
35243;SDS011;37916;52.160;21.066;2022-07-29T22:29:14;2.55;;;0.82;;
35243;SDS011;37916;52.160;21.066;2022-07-29T22:39:16;2.97;;;0.73;;
35243;SDS011;37916;52.160;21.066;2022-07-29T22:49:17;2.40;;;0.85;;
35243;SDS011;37916;52.160;21.066;2022-07-29T22:59:17;1.70;;;0.80;;
35243;SDS011;37916;52.160;21.066;2022-07-29T23:09:18;3.97;;;0.80;;
35243;SDS011;37916;52.160;21.066;2022-07-29T23:19:19;2.53;;;0.77;;
35243;SDS011;37916;52.160;21.066;2022-07-29T23:29:19;1.98;;;0.90;;
35243;SDS011;37916;52.160;21.066;2022-07-29T23:39:20;2.80;;;0.88;;
35243;SDS011;37916;52.160;21.066;2022-07-29T23:49:21;4.05;;;0.70;;
35243;SDS011;37916;52.160;21.066;2022-07-29T23:59:22;3.60;;;0.90;;
